Time;durP1;ratioP1;P1;durP2;ratioP2;P2;SDS_P1;SDS_P2;PMS_P1;PMS_P2;Temp;Humidity;BMP_temperature;BMP_pressure;BME280_temperature;BME280_humidity;BME280_pressure;Samples;Min_cycle;Max_cycle;Signal;HPM_P1;HPM_P2
2022/11/23 00:01:40;;;;;;;;;;;19.30;64.30;;;;;;4446756;32;20335;-78
2022/11/23 00:04:07;;;;;;;;;;;19.20;64.30;;;;;;4446524;32;19995;-78
2022/11/23 00:06:42;;;;;;;;;;;19.20;64.30;;;;;;4446586;32;20108;-80
2022/11/23 00:09:09;;;;;;;;;;;19.20;64.20;;;;;;4446429;32;19974;-78
2022/11/23 00:11:35;;;;;;;;;;;19.20;64.30;;;;;;4446508;32;20064;-77
2022/11/23 00:14:00;;;;;;;;;;;19.20;64.40;;;;;;4446338;32;19975;-77
2022/11/23 00:16:28;;;;;;;;;;;19.20;64.40;;;;;;4446579;32;20387;-78
2022/11/23 00:18:55;;;;;;;;;;;19.20;64.40;;;;;;4446418;32;20566;-79
2022/11/23 00:21:22;;;;;;;;;;;19.20;64.40;;;;;;4444870;32;20120;-78
2022/11/23 00:23:57;;;;;;;;;;;19.10;64.30;;;;;;4446424;32;20100;-78
2022/11/23 00:26:23;;;;;;;;;;;19.10;64.30;;;;;;4446359;32;19986;-78
2022/11/23 00:28:51;;;;;;;;;;;19.10;64.40;;;;;;4446019;32;20001;-79
2022/11/23 00:31:19;;;;;;;;;;;19.10;64.30;;;;;;4446209;32;19995;-79
2022/11/23 00:33:51;;;;;;;;;;;19.10;64.30;;;;;;4446335;32;20030;-80
2022/11/23 00:36:17;;;;;;;;;;;19.10;64.40;;;;;;4447010;32;19974;-78
2022/11/23 00:38:43;;;;;;;;;;;19.10;64.40;;;;;;4436977;32;20024;-81
2022/11/23 00:41:13;;;;;;;;;;;19.10;64.40;;;;;;4446805;32;19979;-78
2022/11/23 00:43:40;;;;;;;;;;;19.00;64.40;;;;;;4446370;32;19978;-79
2022/11/23 00:46:11;;;;;;;;;;;19.00;64.40;;;;;;4446547;32;20005;-79
2022/11/23 00:48:37;;;;;;;;;;;19.00;64.50;;;;;;4445910;32;19978;-79
2022/11/23 00:51:04;;;;;;;;;;;19.00;64.40;;;;;;4446468;32;20025;-79
2022/11/23 00:53:30;;;;;;;;;;;19.00;64.50;;;;;;4438238;32;19993;-79
2022/11/23 00:55:58;;;;;;;;;;;19.00;64.50;;;;;;4439008;32;20029;-80
2022/11/23 00:58:24;;;;;;;;;;;19.00;64.50;;;;;;4446718;32;19989;-79
2022/11/23 01:00:50;;;;;;;;;;;19.00;64.50;;;;;;4446947;32;19978;-79
2022/11/23 01:03:16;;;;;;;;;;;18.90;64.40;;;;;;4446954;32;20033;-78
2022/11/23 01:05:42;;;;;;;;;;;18.90;64.40;;;;;;4446513;32;20119;-79
2022/11/23 01:08:09;;;;;;;;;;;18.90;64.40;;;;;;4446865;32;19989;-80
2022/11/23 01:10:39;;;;;;;;;;;18.90;64.40;;;;;;4438791;32;20052;-79
2022/11/23 01:13:05;;;;;;;;;;;18.90;64.40;;;;;;4446862;32;19987;-79
2022/11/23 01:15:32;;;;;;;;;;;18.90;64.40;;;;;;4446926;32;19974;-78
2022/11/23 01:18:00;;;;;;;;;;;18.90;64.50;;;;;;4446684;32;19987;-78
2022/11/23 01:20:29;;;;;;;;;;;18.90;64.40;;;;;;4446646;32;20052;-79
2022/11/23 01:22:55;;;;;;;;;;;18.90;64.50;;;;;;4446869;32;20517;-79
2022/11/23 01:25:21;;;;;;;;;;;18.90;64.50;;;;;;4447062;32;20010;-79
2022/11/23 01:27:47;;;;;;;;;;;18.90;64.50;;;;;;4446713;32;20447;-79
2022/11/23 01:30:13;;;;;;;;;;;18.90;64.50;;;;;;4447367;32;20426;-78
2022/11/23 01:32:39;;;;;;;;;;;18.80;64.40;;;;;;4446963;32;19975;-78
2022/11/23 01:35:05;;;;;;;;;;;18.80;64.40;;;;;;4446541;32;20018;-78
2022/11/23 01:37:39;;;;;;;;;;;18.80;64.40;;;;;;4447018;32;20045;-79
2022/11/23 01:40:08;;;;;;;;;;;18.80;64.40;;;;;;4446327;32;20030;-78
2022/11/23 01:42:54;;;;;;;;;;;18.80;64.40;;;;;;4446846;32;20037;-78
2022/11/23 01:45:23;;;;;;;;;;;18.80;64.40;;;;;;4446760;32;19978;-78
2022/11/23 01:47:49;;;;;;;;;;;18.80;64.40;;;;;;4446495;32;19978;-78
2022/11/23 01:50:15;;;;;;;;;;;18.80;64.50;;;;;;4445210;32;20017;-79
2022/11/23 01:52:41;;;;;;;;;;;18.80;64.40;;;;;;4446576;32;20076;-78
2022/11/23 01:55:14;;;;;;;;;;;18.70;64.40;;;;;;4433628;32;20050;-78
2022/11/23 01:57:42;;;;;;;;;;;18.70;64.40;;;;;;4437692;32;20009;-79
2022/11/23 02:00:15;;;;;;;;;;;18.70;64.40;;;;;;4446634;32;20565;-79
2022/11/23 02:02:45;;;;;;;;;;;18.70;64.40;;;;;;4455080;32;19990;-78
2022/11/23 02:05:39;;;;;;;;;;;18.70;64.40;;;;;;4442997;32;19982;-78
2022/11/23 02:08:07;;;;;;;;;;;18.70;64.40;;;;;;4446214;32;19974;-78
2022/11/23 02:10:33;;;;;;;;;;;18.70;64.40;;;;;;4445860;32;20034;-79
2022/11/23 02:13:01;;;;;;;;;;;18.70;64.50;;;;;;4446164;32;20034;-79
2022/11/23 02:15:27;;;;;;;;;;;18.70;64.50;;;;;;4445916;32;20400;-79
2022/11/23 02:17:54;;;;;;;;;;;18.70;64.50;;;;;;4446135;32;19963;-78
2022/11/23 02:20:20;;;;;;;;;;;18.70;64.40;;;;;;4442257;32;20419;-78
2022/11/23 02:22:57;;;;;;;;;;;18.60;64.40;;;;;;4442539;32;19990;-79
2022/11/23 02:25:50;;;;;;;;;;;18.60;64.40;;;;;;4446026;32;19986;-78
2022/11/23 02:28:17;;;;;;;;;;;18.60;64.40;;;;;;4445543;32;20034;-78
2022/11/23 02:30:44;;;;;;;;;;;18.60;64.40;;;;;;4437286;32;20045;-79
2022/11/23 02:33:12;;;;;;;;;;;18.60;64.40;;;;;;4443685;32;20172;-79
2022/11/23 02:35:51;;;;;;;;;;;18.60;64.50;;;;;;4444882;32;19978;-79
2022/11/23 02:38:24;;;;;;;;;;;18.60;64.40;;;;;;4445617;32;20319;-79
2022/11/23 02:40:50;;;;;;;;;;;18.60;64.40;;;;;;4445630;32;20037;-79
2022/11/23 02:43:16;;;;;;;;;;;18.60;64.50;;;;;;4445510;32;20101;-80
2022/11/23 02:46:01;;;;;;;;;;;18.60;64.50;;;;;;4445825;32;19974;-79
2022/11/23 02:48:47;;;;;;;;;;;18.60;64.40;;;;;;4455263;32;19978;-79
2022/11/23 02:51:33;;;;;;;;;;;18.60;64.40;;;;;;4444678;32;19978;-80
2022/11/23 02:53:59;;;;;;;;;;;18.60;64.50;;;;;;4445441;32;19993;-79
2022/11/23 02:56:26;;;;;;;;;;;18.60;64.40;;;;;;4445707;32;19978;-79
2022/11/23 02:58:52;;;;;;;;;;;18.60;64.50;;;;;;4445118;32;20482;-79
2022/11/23 03:01:18;;;;;;;;;;;18.50;64.50;;;;;;4445568;32;19978;-79
2022/11/23 03:03:44;;;;;;;;;;;18.50;64.50;;;;;;4445384;32;20384;-80
2022/11/23 03:06:10;;;;;;;;;;;18.60;64.50;;;;;;4457165;32;19975;-83
2022/11/23 03:08:37;;;;;;;;;;;18.50;64.50;;;;;;4445522;32;19990;-79
2022/11/23 03:11:03;;;;;;;;;;;18.50;64.50;;;;;;4445770;32;20010;-79
2022/11/23 03:13:36;;;;;;;;;;;18.50;64.50;;;;;;4445374;32;20044;-80
2022/11/23 03:16:02;;;;;;;;;;;18.50;65.30;;;;;;4445279;32;19991;-79
2022/11/23 03:18:31;;;;;;;;;;;18.50;64.50;;;;;;4445193;32;20500;-79
2022/11/23 03:21:02;;;;;;;;;;;18.50;64.50;;;;;;4441990;32;20056;-79
2022/11/23 03:23:28;;;;;;;;;;;18.50;65.40;;;;;;4445217;32;20328;-79
2022/11/23 03:25:55;;;;;;;;;;;18.50;64.50;;;;;;4445295;32;19983;-79
2022/11/23 03:28:21;;;;;;;;;;;18.50;64.50;;;;;;4444752;32;20056;-79
2022/11/23 03:30:46;;;;;;;;;;;18.40;64.50;;;;;;4445329;32;20084;-79
2022/11/23 03:33:16;;;;;;;;;;;18.40;64.50;;;;;;4444979;32;19978;-79
2022/11/23 03:35:42;;;;;;;;;;;18.40;64.40;;;;;;4445421;32;20092;-79
2022/11/23 03:38:08;;;;;;;;;;;18.40;64.50;;;;;;4445118;32;20392;-79
2022/11/23 03:40:34;;;;;;;;;;;18.40;64.50;;;;;;4439001;32;19963;-79
2022/11/23 03:43:01;;;;;;;;;;;18.40;64.50;;;;;;4440816;32;19982;-80
2022/11/23 03:45:27;;;;;;;;;;;18.40;64.50;;;;;;4445224;32;19989;-79
2022/11/23 03:47:53;;;;;;;;;;;18.40;64.50;;;;;;4435496;32;19988;-80
2022/11/23 03:50:19;;;;;;;;;;;18.40;64.60;;;;;;4443732;32;19971;-79
2022/11/23 03:52:49;;;;;;;;;;;18.40;64.50;;;;;;4443725;32;20041;-79
2022/11/23 03:55:15;;;;;;;;;;;18.40;64.60;;;;;;4438840;32;20136;-79
2022/11/23 03:57:41;;;;;;;;;;;18.40;64.60;;;;;;4433839;32;20324;-79
2022/11/23 04:00:08;;;;;;;;;;;18.40;64.70;;;;;;4434381;32;19998;-80
2022/11/23 04:02:35;;;;;;;;;;;18.40;64.60;;;;;;4434000;32;20454;-80
2022/11/23 04:05:01;;;;;;;;;;;18.40;64.50;;;;;;4444900;32;20399;-80
2022/11/23 04:07:34;;;;;;;;;;;18.30;64.60;;;;;;4444805;32;19993;-80
2022/11/23 04:10:00;;;;;;;;;;;18.30;64.50;;;;;;4445059;32;19974;-79
2022/11/23 04:12:32;;;;;;;;;;;18.30;64.60;;;;;;4443915;32;20038;-79
2022/11/23 04:14:58;;;;;;;;;;;18.30;64.50;;;;;;4444909;32;20450;-80
2022/11/23 04:17:24;;;;;;;;;;;18.30;64.60;;;;;;4445098;32;20308;-80
2022/11/23 04:19:50;;;;;;;;;;;18.30;64.60;;;;;;4434897;32;20096;-80
2022/11/23 04:22:19;;;;;;;;;;;18.30;64.60;;;;;;4444932;32;19978;-79
2022/11/23 04:24:45;;;;;;;;;;;18.30;64.60;;;;;;4444661;32;20033;-80
2022/11/23 04:27:10;;;;;;;;;;;18.30;64.60;;;;;;4444738;32;19959;-79
2022/11/23 04:29:38;;;;;;;;;;;18.30;64.60;;;;;;4444371;32;20466;-80
2022/11/23 04:32:11;;;;;;;;;;;18.30;64.60;;;;;;4447782;32;19985;-80
2022/11/23 04:34:37;;;;;;;;;;;18.30;64.60;;;;;;4447426;32;19978;-80
2022/11/23 04:42:16;;;;;;;;;;;18.20;64.60;;;;;;4573509;26;20057;-80
2022/11/23 04:44:46;;;;;;;;;;;18.20;64.50;;;;;;4451704;32;20028;-72
2022/11/23 04:47:12;;;;;;;;;;;18.20;64.70;;;;;;4446257;32;20397;-74
2022/11/23 04:49:40;;;;;;;;;;;18.20;64.60;;;;;;4447432;32;19974;-81
2022/11/23 04:52:06;;;;;;;;;;;18.20;64.60;;;;;;4447663;32;20010;-79
2022/11/23 04:54:37;;;;;;;;;;;18.20;64.70;;;;;;4447840;32;20125;-83
2022/11/23 04:57:03;;;;;;;;;;;18.20;64.60;;;;;;4447248;32;20073;-79
2022/11/23 04:59:29;;;;;;;;;;;18.20;64.60;;;;;;4447658;32;20492;-79
2022/11/23 05:01:55;;;;;;;;;;;18.20;64.60;;;;;;4447379;32;19980;-79
2022/11/23 05:04:21;;;;;;;;;;;18.20;64.60;;;;;;4447376;32;20522;-79
2022/11/23 05:07:04;;;;;;;;;;;18.20;64.70;;;;;;4447520;32;19990;-79
2022/11/23 05:09:40;;;;;;;;;;;18.20;64.60;;;;;;4447749;32;20095;-80
2022/11/23 05:12:06;;;;;;;;;;;18.20;64.70;;;;;;4447754;32;20101;-79
2022/11/23 05:14:33;;;;;;;;;;;18.20;64.70;;;;;;4447738;32;20377;-79
2022/11/23 05:16:59;;;;;;;;;;;18.10;64.60;;;;;;4447383;32;19985;-79
2022/11/23 05:19:38;;;;;;;;;;;18.20;64.70;;;;;;4447611;32;20044;-80
2022/11/23 05:22:12;;;;;;;;;;;18.10;64.70;;;;;;4447338;32;20399;-79
2022/11/23 05:24:38;;;;;;;;;;;18.10;64.60;;;;;;4447395;32;19977;-81
2022/11/23 05:27:04;;;;;;;;;;;18.10;64.60;;;;;;4447213;32;20426;-79
2022/11/23 05:29:30;;;;;;;;;;;18.10;64.70;;;;;;4447272;32;20319;-79
2022/11/23 05:31:56;;;;;;;;;;;18.10;64.60;;;;;;4447161;32;19962;-79
2022/11/23 05:34:22;;;;;;;;;;;18.10;64.70;;;;;;4447167;32;20330;-79
2022/11/23 05:36:48;;;;;;;;;;;18.10;64.60;;;;;;4446910;32;20368;-80
2022/11/23 05:39:14;;;;;;;;;;;18.10;64.60;;;;;;4447043;32;19959;-79
2022/11/23 05:41:39;;;;;;;;;;;18.10;64.60;;;;;;4446742;32;20057;-80
2022/11/23 05:44:05;;;;;;;;;;;18.10;64.70;;;;;;4446975;32;19977;-80
2022/11/23 05:46:34;;;;;;;;;;;18.10;64.70;;;;;;4446862;32;19975;-79
2022/11/23 05:48:59;;;;;;;;;;;18.10;64.70;;;;;;4446905;32;20033;-79
2022/11/23 05:51:28;;;;;;;;;;;18.10;64.70;;;;;;4447071;32;19992;-80
2022/11/23 05:53:57;;;;;;;;;;;18.10;64.70;;;;;;4446938;32;20064;-80
2022/11/23 05:56:24;;;;;;;;;;;18.00;64.60;;;;;;4446959;32;20179;-79
2022/11/23 05:58:55;;;;;;;;;;;18.00;64.60;;;;;;4446965;32;19990;-80
2022/11/23 06:01:22;;;;;;;;;;;18.00;64.70;;;;;;4446396;32;19970;-79
2022/11/23 06:03:51;;;;;;;;;;;18.00;64.70;;;;;;4432821;32;19982;-80
2022/11/23 06:06:17;;;;;;;;;;;18.00;64.60;;;;;;4446434;32;20019;-80
2022/11/23 06:08:44;;;;;;;;;;;18.00;64.70;;;;;;4446235;32;19982;-80
2022/11/23 06:11:10;;;;;;;;;;;18.00;64.60;;;;;;4446625;32;19963;-79
2022/11/23 06:13:38;;;;;;;;;;;18.10;64.80;;;;;;4446720;32;20422;-80
2022/11/23 06:16:05;;;;;;;;;;;18.00;64.70;;;;;;4446766;32;20029;-79
2022/11/23 06:18:33;;;;;;;;;;;18.00;64.70;;;;;;4446544;32;19993;-80
2022/11/23 06:20:59;;;;;;;;;;;18.00;64.70;;;;;;4446478;32;19978;-81
2022/11/23 06:23:25;;;;;;;;;;;18.00;64.70;;;;;;4446454;32;20065;-80
2022/11/23 06:25:51;;;;;;;;;;;18.00;64.70;;;;;;4432256;32;20071;-80
2022/11/23 06:28:18;;;;;;;;;;;18.00;64.70;;;;;;4446308;32;19987;-80
2022/11/23 06:30:44;;;;;;;;;;;18.00;64.70;;;;;;4446118;32;20308;-80
2022/11/23 06:33:10;;;;;;;;;;;18.00;64.80;;;;;;4446439;32;19978;-81
2022/11/23 06:35:36;;;;;;;;;;;18.00;64.70;;;;;;4446384;32;20372;-80
2022/11/23 06:38:02;;;;;;;;;;;18.00;64.70;;;;;;4446303;32;19990;-80
2022/11/23 06:40:35;;;;;;;;;;;17.90;64.70;;;;;;4446535;32;20399;-79
2022/11/23 06:43:01;;;;;;;;;;;18.00;64.70;;;;;;4445796;32;19963;-80
2022/11/23 06:45:27;;;;;;;;;;;18.00;64.70;;;;;;4446181;32;20084;-80
2022/11/23 06:47:53;;;;;;;;;;;17.90;64.60;;;;;;4446371;32;20372;-80
2022/11/23 06:50:19;;;;;;;;;;;18.00;64.60;;;;;;4445932;32;19986;-80
2022/11/23 06:52:46;;;;;;;;;;;17.90;64.60;;;;;;4445694;32;19993;-80
2022/11/23 06:55:12;;;;;;;;;;;17.90;64.60;;;;;;4446091;32;20413;-80
2022/11/23 06:57:37;;;;;;;;;;;17.90;64.60;;;;;;4446009;32;20084;-80
2022/11/23 07:00:05;;;;;;;;;;;17.90;64.70;;;;;;4446014;32;19974;-80
2022/11/23 07:02:31;;;;;;;;;;;17.90;64.70;;;;;;4445937;32;19978;-80
2022/11/23 07:04:57;;;;;;;;;;;17.90;64.80;;;;;;4445939;32;19990;-80
2022/11/23 07:07:23;;;;;;;;;;;17.90;64.80;;;;;;4445833;32;20033;-80
2022/11/23 07:09:49;;;;;;;;;;;17.80;64.80;;;;;;4446137;32;19971;-80
2022/11/23 07:12:16;;;;;;;;;;;17.90;64.80;;;;;;4446149;32;19989;-80
2022/11/23 07:14:42;;;;;;;;;;;17.90;64.70;;;;;;4446058;32;19975;-81
2022/11/23 07:17:07;;;;;;;;;;;17.90;64.80;;;;;;4445844;32;20432;-80
2022/11/23 07:19:33;;;;;;;;;;;17.80;64.70;;;;;;4445816;32;19975;-81
2022/11/23 07:21:59;;;;;;;;;;;17.80;64.70;;;;;;4445771;32;20367;-82
2022/11/23 07:24:26;;;;;;;;;;;17.80;64.70;;;;;;4445430;32;20018;-84
2022/11/23 07:26:52;;;;;;;;;;;17.80;64.90;;;;;;4431880;32;19981;-84
2022/11/23 07:29:18;;;;;;;;;;;17.80;64.80;;;;;;4445757;32;20426;-84
2022/11/23 07:31:44;;;;;;;;;;;17.80;64.90;;;;;;4445521;32;20100;-84
2022/11/23 07:34:13;;;;;;;;;;;17.80;65.00;;;;;;4445932;32;19975;-84
2022/11/23 07:36:39;;;;;;;;;;;17.80;65.00;;;;;;4445483;32;20018;-84
2022/11/23 07:39:06;;;;;;;;;;;17.80;65.30;;;;;;4431506;32;20427;-83
2022/11/23 07:41:32;;;;;;;;;;;17.80;65.40;;;;;;4445930;32;20450;-82
2022/11/23 07:43:58;;;;;;;;;;;17.80;65.40;;;;;;4442040;32;20168;-83
2022/11/23 07:46:24;;;;;;;;;;;17.80;65.50;;;;;;4429850;32;20332;-81
2022/11/23 07:48:49;;;;;;;;;;;17.80;65.50;;;;;;4445561;32;20029;-83
2022/11/23 07:51:18;;;;;;;;;;;17.80;65.50;;;;;;4445646;32;20383;-84
2022/11/23 07:53:45;;;;;;;;;;;17.80;65.70;;;;;;4445843;32;19986;-85
2022/11/23 07:56:12;;;;;;;;;;;17.80;65.50;;;;;;4445490;32;20160;-84
2022/11/23 07:58:38;;;;;;;;;;;17.80;65.60;;;;;;4431980;32;20395;-81
2022/11/23 08:01:03;;;;;;;;;;;17.80;65.70;;;;;;4445644;32;20490;-81
2022/11/23 08:03:36;;;;;;;;;;;17.90;65.70;;;;;;4447433;32;20161;-80
2022/11/23 08:06:02;;;;;;;;;;;17.90;65.70;;;;;;4448138;32;19989;-81
2022/11/23 08:08:35;;;;;;;;;;;18.00;65.00;;;;;;4448799;32;19989;-81
2022/11/23 08:11:01;;;;;;;;;;;18.10;64.70;;;;;;4434156;32;20108;-84
2022/11/23 08:13:28;;;;;;;;;;;18.20;64.60;;;;;;4448028;32;19978;-82
2022/11/23 08:15:55;;;;;;;;;;;18.30;64.50;;;;;;4448134;32;19997;-83
2022/11/23 08:18:22;;;;;;;;;;;18.40;64.30;;;;;;4448574;32;20403;-82
2022/11/23 08:20:48;;;;;;;;;;;18.40;64.20;;;;;;4448821;32;20065;-83
2022/11/23 08:23:14;;;;;;;;;;;18.60;64.10;;;;;;4448386;32;20112;-82
2022/11/23 08:25:40;;;;;;;;;;;18.70;63.90;;;;;;4448222;32;19979;-81
2022/11/23 08:28:06;;;;;;;;;;;18.80;63.70;;;;;;4448110;32;19978;-81
2022/11/23 08:30:32;;;;;;;;;;;18.90;63.50;;;;;;4448428;32;19975;-81
2022/11/23 08:33:03;;;;;;;;;;;19.00;63.20;;;;;;4448085;32;19985;-81
2022/11/23 08:35:33;;;;;;;;;;;19.20;63.00;;;;;;4448344;32;20319;-80
2022/11/23 08:38:01;;;;;;;;;;;19.30;62.70;;;;;;4448190;32;19979;-80
2022/11/23 08:40:46;;;;;;;;;;;19.40;62.50;;;;;;4436640;32;20022;-81
2022/11/23 08:43:12;;;;;;;;;;;19.50;63.00;;;;;;4433863;32;20104;-82
2022/11/23 08:45:38;;;;;;;;;;;19.60;62.00;;;;;;4448093;32;19971;-84
2022/11/23 08:48:05;;;;;;;;;;;19.70;61.70;;;;;;4447559;32;20045;-82
2022/11/23 08:50:33;;;;;;;;;;;19.80;61.40;;;;;;4447819;32;19983;-81
2022/11/23 08:52:59;;;;;;;;;;;19.90;61.30;;;;;;4447837;32;19971;-83
2022/11/23 08:55:27;;;;;;;;;;;20.00;61.10;;;;;;4447531;32;19975;-82
2022/11/23 08:57:59;;;;;;;;;;;20.10;60.80;;;;;;4448077;32;19970;-82
2022/11/23 09:00:25;;;;;;;;;;;20.20;60.70;;;;;;4447779;32;20034;-81
2022/11/23 09:02:51;;;;;;;;;;;20.30;60.50;;;;;;4433955;32;20386;-81
2022/11/23 09:05:17;;;;;;;;;;;20.40;61.20;;;;;;4447421;32;19998;-80
2022/11/23 09:07:42;;;;;;;;;;;20.40;60.20;;;;;;4447678;32;20316;-81
2022/11/23 09:10:10;;;;;;;;;;;20.50;60.10;;;;;;4447860;32;20064;-80
2022/11/23 09:12:36;;;;;;;;;;;20.50;59.90;;;;;;4447369;32;20383;-81
2022/11/23 09:15:01;;;;;;;;;;;20.60;59.90;;;;;;4447095;32;19989;-80
2022/11/23 09:17:29;;;;;;;;;;;20.70;59.80;;;;;;4447754;32;20343;-80
2022/11/23 09:19:55;;;;;;;;;;;20.70;59.70;;;;;;4447709;32;19989;-81
2022/11/23 09:22:20;;;;;;;;;;;20.80;59.60;;;;;;4447710;32;20022;-80
2022/11/23 09:24:46;;;;;;;;;;;20.80;59.40;;;;;;4447193;32;20383;-82
2022/11/23 09:27:12;;;;;;;;;;;20.90;59.40;;;;;;4447309;32;20021;-80
2022/11/23 09:29:37;;;;;;;;;;;20.90;59.30;;;;;;4433715;32;20065;-79
2022/11/23 09:32:03;;;;;;;;;;;20.90;59.20;;;;;;4447245;32;20048;-79
2022/11/23 09:34:29;;;;;;;;;;;21.00;59.10;;;;;;4447291;32;20265;-80
2022/11/23 09:36:58;;;;;;;;;;;21.00;59.00;;;;;;4447261;32;19970;-82
2022/11/23 09:39:24;;;;;;;;;;;21.10;59.00;;;;;;4433425;32;20443;-80
2022/11/23 09:42:08;;;;;;;;;;;21.10;58.90;;;;;;4432895;32;19974;-81
2022/11/23 09:44:44;;;;;;;;;;;21.20;59.00;;;;;;4446816;32;19994;-79
2022/11/23 09:47:24;;;;;;;;;;;21.20;59.10;;;;;;4447135;32;20104;-78
2022/11/23 09:50:08;;;;;;;;;;;21.20;59.10;;;;;;4446832;32;20057;-79
2022/11/23 09:52:35;;;;;;;;;;;21.20;59.20;;;;;;4447214;32;20021;-80
2022/11/23 09:55:05;;;;;;;;;;;21.30;59.20;;;;;;4447013;32;19985;-79
2022/11/23 09:57:33;;;;;;;;;;;21.30;59.10;;;;;;4446733;32;19992;-79
2022/11/23 10:00:00;;;;;;;;;;;21.40;59.20;;;;;;4446451;32;19967;-79
2022/11/23 10:02:30;;;;;;;;;;;21.40;59.00;;;;;;4446680;32;19989;-79
2022/11/23 10:04:57;;;;;;;;;;;21.50;59.00;;;;;;4445971;32;19979;-79
2022/11/23 10:07:43;;;;;;;;;;;21.50;58.90;;;;;;4445450;32;19979;-78
2022/11/23 10:10:31;;;;;;;;;;;21.50;58.80;;;;;;4421921;32;20033;-82
2022/11/23 10:13:15;;;;;;;;;;;21.60;58.80;;;;;;4432414;32;20015;-81
2022/11/23 10:15:56;;;;;;;;;;;21.60;58.80;;;;;;4446690;32;20340;-79
2022/11/23 10:18:27;;;;;;;;;;;21.60;58.70;;;;;;4446840;32;20060;-80
2022/11/23 10:20:56;;;;;;;;;;;21.70;58.80;;;;;;4446145;32;19978;-81
2022/11/23 10:23:30;;;;;;;;;;;21.70;58.80;;;;;;4446352;32;19986;-84
2022/11/23 10:26:19;;;;;;;;;;;21.60;58.80;;;;;;4434865;32;20383;-80
2022/11/23 10:28:46;;;;;;;;;;;21.60;59.00;;;;;;4445487;32;20032;-77
2022/11/23 10:31:13;;;;;;;;;;;21.50;59.10;;;;;;4446200;32;19993;-79
2022/11/23 10:33:58;;;;;;;;;;;21.40;59.30;;;;;;4445394;32;19970;-80
2022/11/23 10:36:24;;;;;;;;;;;21.40;59.60;;;;;;4446491;32;20482;-77
2022/11/23 10:38:53;;;;;;;;;;;21.30;59.70;;;;;;4446389;32;19967;-78
2022/11/23 10:41:19;;;;;;;;;;;21.20;59.80;;;;;;4446437;32;20277;-79
2022/11/23 10:43:55;;;;;;;;;;;21.20;59.90;;;;;;4446052;32;20438;-79
2022/11/23 10:46:41;;;;;;;;;;;21.20;60.10;;;;;;4446026;32;20025;-76
2022/11/23 10:49:19;;;;;;;;;;;21.10;60.20;;;;;;4445476;32;20064;-78
2022/11/23 10:52:04;;;;;;;;;;;21.10;60.40;;;;;;4445709;32;19990;-77
2022/11/23 10:54:30;;;;;;;;;;;21.10;60.50;;;;;;4445107;32;20057;-77
2022/11/23 10:56:57;;;;;;;;;;;21.00;60.60;;;;;;4445942;32;20160;-81
2022/11/23 10:59:29;;;;;;;;;;;21.00;60.70;;;;;;4446218;32;20017;-79
2022/11/23 11:02:15;;;;;;;;;;;21.00;60.80;;;;;;4446235;32;19982;-80
2022/11/23 11:04:41;;;;;;;;;;;21.00;60.90;;;;;;4446166;32;19979;-78
2022/11/23 11:07:18;;;;;;;;;;;21.00;61.00;;;;;;4446368;32;20293;-81
2022/11/23 11:09:48;;;;;;;;;;;20.90;61.00;;;;;;4445983;32;19967;-82
2022/11/23 11:12:15;;;;;;;;;;;20.90;61.00;;;;;;4445990;32;19986;-81
2022/11/23 11:14:53;;;;;;;;;;;20.90;61.00;;;;;;4445642;32;19983;-81
2022/11/23 11:17:30;;;;;;;;;;;20.90;61.10;;;;;;4446286;32;20506;-81
2022/11/23 11:19:55;;;;;;;;;;;20.80;61.10;;;;;;4445243;32;20402;-79
2022/11/23 11:22:34;;;;;;;;;;;20.80;61.20;;;;;;4431805;32;19975;-80
2022/11/23 11:25:02;;;;;;;;;;;20.80;61.10;;;;;;4446112;32;20037;-79
2022/11/23 11:27:28;;;;;;;;;;;20.80;61.10;;;;;;4445812;32;20462;-79
2022/11/23 11:29:56;;;;;;;;;;;20.80;61.10;;;;;;4445803;32;19983;-78
2022/11/23 11:32:25;;;;;;;;;;;20.80;61.10;;;;;;4446037;32;19986;-77
2022/11/23 11:34:52;;;;;;;;;;;20.80;61.10;;;;;;4445902;32;20430;-77
2022/11/23 11:37:39;;;;;;;;;;;20.90;61.10;;;;;;4445757;32;20145;-78
2022/11/23 11:40:13;;;;;;;;;;;20.90;61.10;;;;;;4449201;32;19975;-77
2022/11/23 11:42:42;;;;;;;;;;;20.90;61.10;;;;;;4448542;32;19975;-78
2022/11/23 11:45:14;;;;;;;;;;;20.90;61.10;;;;;;4449175;32;20148;-78
2022/11/23 11:47:46;;;;;;;;;;;20.90;61.00;;;;;;4449039;32;19987;-77
2022/11/23 11:50:21;;;;;;;;;;;20.90;61.00;;;;;;4448784;32;20060;-78
2022/11/23 11:52:47;;;;;;;;;;;20.90;61.00;;;;;;4448443;32;19975;-78
2022/11/23 11:55:23;;;;;;;;;;;20.90;60.80;;;;;;4448888;32;20088;-79
2022/11/23 11:58:01;;;;;;;;;;;20.90;60.60;;;;;;4449076;32;20000;-79
2022/11/23 12:00:29;;;;;;;;;;;20.90;60.30;;;;;;4448691;32;20463;-79
2022/11/23 12:03:00;;;;;;;;;;;20.80;60.40;;;;;;4448607;32;20434;-78
2022/11/23 12:05:28;;;;;;;;;;;20.80;60.30;;;;;;4448834;32;19974;-77
2022/11/23 12:08:00;;;;;;;;;;;20.80;60.30;;;;;;4448394;32;20035;-79
2022/11/23 12:10:28;;;;;;;;;;;20.80;60.30;;;;;;4448502;32;20526;-79
2022/11/23 12:12:55;;;;;;;;;;;20.80;60.20;;;;;;4448395;32;20296;-78
2022/11/23 12:15:24;;;;;;;;;;;20.90;60.10;;;;;;4448541;32;19978;-78
2022/11/23 12:18:02;;;;;;;;;;;20.90;60.10;;;;;;4448908;32;20368;-77
2022/11/23 12:20:46;;;;;;;;;;;20.90;60.10;;;;;;4448581;32;20021;-77
2022/11/23 12:23:21;;;;;;;;;;;20.90;60.00;;;;;;4448401;32;20427;-78
2022/11/23 12:25:55;;;;;;;;;;;20.90;60.00;;;;;;4448265;32;19985;-78
2022/11/23 12:28:56;;;;;;;;;;;20.90;60.00;;;;;;4448543;32;20395;-77
2022/11/23 12:31:24;;;;;;;;;;;20.90;60.00;;;;;;4400304;32;20378;-77
2022/11/23 12:34:04;;;;;;;;;;;20.90;60.00;;;;;;4438744;32;19971;-76
2022/11/23 12:36:32;;;;;;;;;;;20.80;60.00;;;;;;4448443;32;19997;-75
2022/11/23 12:39:15;;;;;;;;;;;20.80;60.10;;;;;;4448239;32;20363;-79
2022/11/23 12:41:53;;;;;;;;;;;20.80;61.00;;;;;;4448173;32;19970;-78
2022/11/23 12:44:25;;;;;;;;;;;20.80;60.30;;;;;;4448007;32;20052;-77
2022/11/23 12:47:10;;;;;;;;;;;20.80;60.30;;;;;;4448104;32;20515;-78
2022/11/23 12:49:38;;;;;;;;;;;20.80;60.30;;;;;;4433049;32;20172;-76
2022/11/23 12:52:10;;;;;;;;;;;20.90;60.40;;;;;;4447966;32;19987;-77
2022/11/23 12:54:41;;;;;;;;;;;20.90;60.40;;;;;;4447627;32;19975;-75
2022/11/23 12:57:11;;;;;;;;;;;20.90;60.40;;;;;;4448158;32;19989;-76
2022/11/23 12:59:40;;;;;;;;;;;20.90;60.50;;;;;;4447841;32;20061;-79
2022/11/23 13:02:09;;;;;;;;;;;20.90;60.50;;;;;;4448021;32;20320;-76
2022/11/23 13:04:38;;;;;;;;;;;20.90;60.60;;;;;;4447396;32;19990;-79
2022/11/23 13:07:03;;;;;;;;;;;21.00;60.70;;;;;;4447367;32;19974;-77
2022/11/23 13:09:36;;;;;;;;;;;21.00;60.80;;;;;;4447580;32;19978;-76
2022/11/23 13:12:05;;;;;;;;;;;20.90;60.80;;;;;;4447909;32;20092;-76
2022/11/23 13:14:30;;;;;;;;;;;21.00;60.90;;;;;;4447562;32;20451;-75
2022/11/23 13:16:56;;;;;;;;;;;21.00;60.90;;;;;;4447623;32;19971;-79
2022/11/23 13:19:41;;;;;;;;;;;21.00;60.90;;;;;;4447527;32;20478;-78
2022/11/23 13:22:11;;;;;;;;;;;21.00;61.00;;;;;;4447392;32;20096;-79
2022/11/23 13:24:38;;;;;;;;;;;21.00;61.00;;;;;;4447412;32;19970;-80
2022/11/23 13:27:13;;;;;;;;;;;21.00;61.00;;;;;;4433522;32;19979;-79
2022/11/23 13:29:54;;;;;;;;;;;21.00;61.00;;;;;;4447350;32;20002;-79
2022/11/23 13:32:34;;;;;;;;;;;21.00;61.10;;;;;;4447048;32;19975;-79
2022/11/23 13:35:00;;;;;;;;;;;21.00;61.20;;;;;;4447301;32;20056;-78
2022/11/23 13:37:25;;;;;;;;;;;21.00;62.10;;;;;;4447276;32;19974;-78
2022/11/23 13:39:57;;;;;;;;;;;21.00;61.20;;;;;;4446886;32;19966;-79
2022/11/23 13:42:24;;;;;;;;;;;21.00;61.20;;;;;;4447112;32;20001;-77
2022/11/23 13:45:08;;;;;;;;;;;21.00;61.20;;;;;;4447258;32;20391;-77
2022/11/23 13:47:34;;;;;;;;;;;21.00;61.20;;;;;;4446754;32;20033;-77
2022/11/23 13:50:08;;;;;;;;;;;21.00;61.10;;;;;;4447035;32;20112;-77
2022/11/23 13:52:35;;;;;;;;;;;21.10;61.10;;;;;;4447148;32;19967;-77
2022/11/23 13:55:16;;;;;;;;;;;21.10;61.20;;;;;;4447320;32;20376;-79
2022/11/23 13:57:44;;;;;;;;;;;21.10;61.20;;;;;;4447029;32;20048;-77
2022/11/23 14:00:28;;;;;;;;;;;21.10;61.20;;;;;;4446709;32;20481;-77
2022/11/23 14:03:15;;;;;;;;;;;21.00;61.10;;;;;;4447171;32;19975;-76
2022/11/23 14:05:46;;;;;;;;;;;21.10;61.20;;;;;;4445734;32;19986;-78
2022/11/23 14:08:12;;;;;;;;;;;21.10;61.20;;;;;;4446705;32;20415;-78
2022/11/23 14:10:38;;;;;;;;;;;21.10;61.10;;;;;;4446665;32;20015;-79
2022/11/23 14:13:09;;;;;;;;;;;21.10;61.20;;;;;;4447015;32;20371;-88
2022/11/23 14:15:36;;;;;;;;;;;21.10;61.20;;;;;;4446821;32;19989;-78
2022/11/23 14:18:17;;;;;;;;;;;21.10;61.20;;;;;;4446624;32;19982;-79
2022/11/23 14:20:51;;;;;;;;;;;21.10;61.10;;;;;;4446358;32;19986;-79
2022/11/23 14:23:17;;;;;;;;;;;21.10;61.10;;;;;;4446704;32;19979;-81
2022/11/23 14:25:54;;;;;;;;;;;21.10;61.10;;;;;;4446835;32;19977;-78
2022/11/23 14:28:23;;;;;;;;;;;21.10;61.10;;;;;;4446479;32;20038;-79
2022/11/23 14:30:56;;;;;;;;;;;21.10;61.10;;;;;;4446454;32;20018;-78
2022/11/23 14:33:22;;;;;;;;;;;21.10;61.10;;;;;;4446213;32;20121;-77
2022/11/23 14:35:47;;;;;;;;;;;21.10;62.00;;;;;;4446434;32;20433;-79